sensor_id;sensor_type;location;lat;lon;timestamp;pressure;altitude;pressure_sealevel;temperature;humidity
11077;BME280;5591;42.626;23.380;2023-04-04T00:00:14;92751.50;;;11.48;100.00
11077;BME280;5591;42.626;23.380;2023-04-04T00:02:41;92750.56;;;11.54;100.00
11077;BME280;5591;42.626;23.380;2023-04-04T00:05:08;92743.97;;;11.63;100.00
11077;BME280;5591;42.626;23.380;2023-04-04T00:07:35;92753.22;;;11.54;100.00
11077;BME280;5591;42.626;23.380;2023-04-04T00:10:03;92754.16;;;11.25;100.00
11077;BME280;5591;42.626;23.380;2023-04-04T00:12:30;92738.16;;;11.27;100.00
11077;BME280;5591;42.626;23.380;2023-04-04T00:14:57;92749.78;;;11.42;100.00
11077;BME280;5591;42.626;23.380;2023-04-04T00:17:24;92759.63;;;11.47;100.00
11077;BME280;5591;42.626;23.380;2023-04-04T00:19:51;92762.81;;;11.26;100.00
11077;BME280;5591;42.626;23.380;2023-04-04T00:22:18;92764.03;;;11.00;100.00
11077;BME280;5591;42.626;23.380;2023-04-04T00:24:44;92765.84;;;10.88;100.00
11077;BME280;5591;42.626;23.380;2023-04-04T00:27:12;92765.56;;;11.42;100.00
11077;BME280;5591;42.626;23.380;2023-04-04T00:29:39;92759.75;;;11.29;100.00
11077;BME280;5591;42.626;23.380;2023-04-04T00:32:06;92760.38;;;11.01;100.00
11077;BME280;5591;42.626;23.380;2023-04-04T00:34:33;92756.16;;;10.89;100.00
11077;BME280;5591;42.626;23.380;2023-04-04T00:37:00;92757.94;;;11.18;100.00
11077;BME280;5591;42.626;23.380;2023-04-04T00:39:27;92749.78;;;11.42;100.00
11077;BME280;5591;42.626;23.380;2023-04-04T00:41:54;92747.06;;;11.37;100.00
11077;BME280;5591;42.626;23.380;2023-04-04T00:44:22;92763.63;;;11.26;100.00
11077;BME280;5591;42.626;23.380;2023-04-04T00:46:50;92730.59;;;11.53;100.00
11077;BME280;5591;42.626;23.380;2023-04-04T00:49:17;92734.16;;;11.36;100.00
11077;BME280;5591;42.626;23.380;2023-04-04T00:51:43;92733.38;;;11.58;100.00
11077;BME280;5591;42.626;23.380;2023-04-04T00:54:10;92724.00;;;11.62;100.00
11077;BME280;5591;42.626;23.380;2023-04-04T00:56:38;92728.41;;;11.85;100.00
11077;BME280;5591;42.626;23.380;2023-04-04T00:59:05;92720.06;;;11.76;100.00
11077;BME280;5591;42.626;23.380;2023-04-04T01:01:34;92726.94;;;11.54;100.00
11077;BME280;5591;42.626;23.380;2023-04-04T01:04:01;92726.28;;;11.70;100.00
11077;BME280;5591;42.626;23.380;2023-04-04T01:06:29;92734.50;;;11.51;100.00
11077;BME280;5591;42.626;23.380;2023-04-04T01:08:57;92741.13;;;11.42;100.00
11077;BME280;5591;42.626;23.380;2023-04-04T01:11:25;92689.88;;;11.16;100.00
11077;BME280;5591;42.626;23.380;2023-04-04T01:13:52;92740.06;;;11.54;100.00
11077;BME280;5591;42.626;23.380;2023-04-04T01:16:18;92743.28;;;11.56;100.00
11077;BME280;5591;42.626;23.380;2023-04-04T01:18:47;92745.22;;;11.49;100.00
11077;BME280;5591;42.626;23.380;2023-04-04T01:21:15;92737.81;;;11.58;100.00
11077;BME280;5591;42.626;23.380;2023-04-04T01:23:48;92750.94;;;11.46;100.00
11077;BME280;5591;42.626;23.380;2023-04-04T01:26:20;92744.66;;;11.36;100.00
11077;BME280;5591;42.626;23.380;2023-04-04T01:28:48;92744.91;;;11.34;100.00
11077;BME280;5591;42.626;23.380;2023-04-04T01:31:20;92747.25;;;11.01;100.00
11077;BME280;5591;42.626;23.380;2023-04-04T01:33:53;92738.03;;;11.10;100.00
11077;BME280;5591;42.626;23.380;2023-04-04T01:36:29;92748.78;;;11.32;100.00
11077;BME280;5591;42.626;23.380;2023-04-04T01:39:13;92743.97;;;11.40;100.00
11077;BME280;5591;42.626;23.380;2023-04-04T01:41:43;92744.31;;;11.55;100.00
11077;BME280;5591;42.626;23.380;2023-04-04T01:44:13;92734.59;;;11.56;100.00
11077;BME280;5591;42.626;23.380;2023-04-04T01:46:40;92735.41;;;11.56;100.00
11077;BME280;5591;42.626;23.380;2023-04-04T01:49:07;92730.28;;;11.38;100.00
11077;BME280;5591;42.626;23.380;2023-04-04T01:51:33;92710.41;;;11.19;100.00
11077;BME280;5591;42.626;23.380;2023-04-04T01:54:01;92708.03;;;11.18;100.00
11077;BME280;5591;42.626;23.380;2023-04-04T01:56:27;92715.44;;;10.98;100.00
11077;BME280;5591;42.626;23.380;2023-04-04T01:58:56;92712.34;;;10.78;100.00
11077;BME280;5591;42.626;23.380;2023-04-04T02:01:22;92718.03;;;10.75;100.00
11077;BME280;5591;42.626;23.380;2023-04-04T02:03:49;92706.28;;;10.66;100.00
11077;BME280;5591;42.626;23.380;2023-04-04T02:06:16;92708.75;;;10.61;100.00
11077;BME280;5591;42.626;23.380;2023-04-04T02:08:43;92710.41;;;10.73;100.00
11077;BME280;5591;42.626;23.380;2023-04-04T02:11:09;92711.06;;;10.80;100.00
11077;BME280;5591;42.626;23.380;2023-04-04T02:13:36;92700.72;;;10.85;100.00
11077;BME280;5591;42.626;23.380;2023-04-04T02:16:07;92708.69;;;10.90;100.00
11077;BME280;5591;42.626;23.380;2023-04-04T02:18:33;92714.41;;;10.99;100.00
11077;BME280;5591;42.626;23.380;2023-04-04T02:21:00;92707.44;;;10.81;100.00
11077;BME280;5591;42.626;23.380;2023-04-04T02:23:27;92701.50;;;10.74;100.00
11077;BME280;5591;42.626;23.380;2023-04-04T02:25:54;92709.03;;;10.82;100.00
11077;BME280;5591;42.626;23.380;2023-04-04T02:28:20;92622.09;;;10.33;100.00
11077;BME280;5591;42.626;23.380;2023-04-04T02:30:47;92707.09;;;10.89;100.00
11077;BME280;5591;42.626;23.380;2023-04-04T02:33:15;92712.41;;;10.60;100.00
11077;BME280;5591;42.626;23.380;2023-04-04T02:35:42;92700.94;;;10.31;100.00
11077;BME280;5591;42.626;23.380;2023-04-04T02:38:09;92707.69;;;10.27;100.00
11077;BME280;5591;42.626;23.380;2023-04-04T02:40:36;92701.88;;;10.48;100.00
11077;BME280;5591;42.626;23.380;2023-04-04T02:43:03;92711.28;;;10.56;100.00
11077;BME280;5591;42.626;23.380;2023-04-04T02:45:30;92705.53;;;10.36;100.00
11077;BME280;5591;42.626;23.380;2023-04-04T02:47:57;92675.00;;;10.41;100.00
11077;BME280;5591;42.626;23.380;2023-04-04T02:50:25;92714.88;;;10.43;100.00
11077;BME280;5591;42.626;23.380;2023-04-04T02:52:52;92711.63;;;10.71;100.00
11077;BME280;5591;42.626;23.380;2023-04-04T02:55:24;92713.50;;;10.93;100.00
11077;BME280;5591;42.626;23.380;2023-04-04T02:57:51;92714.50;;;10.81;100.00
11077;BME280;5591;42.626;23.380;2023-04-04T03:00:18;92704.34;;;10.96;100.00
11077;BME280;5591;42.626;23.380;2023-04-04T03:02:51;92718.06;;;10.86;100.00
11077;BME280;5591;42.626;23.380;2023-04-04T03:05:18;92708.91;;;11.00;100.00
11077;BME280;5591;42.626;23.380;2023-04-04T03:07:46;92706.19;;;11.07;100.00
11077;BME280;5591;42.626;23.380;2023-04-04T03:10:13;92732.31;;;11.02;100.00
11077;BME280;5591;42.626;23.380;2023-04-04T03:12:39;92711.44;;;11.07;100.00
11077;BME280;5591;42.626;23.380;2023-04-04T03:15:07;92713.72;;;10.92;100.00
11077;BME280;5591;42.626;23.380;2023-04-04T03:17:33;92629.50;;;10.36;100.00
11077;BME280;5591;42.626;23.380;2023-04-04T03:20:01;92714.66;;;11.09;100.00
11077;BME280;5591;42.626;23.380;2023-04-04T03:22:28;92701.84;;;11.01;100.00
11077;BME280;5591;42.626;23.380;2023-04-04T03:24:56;92635.66;;;10.53;100.00
11077;BME280;5591;42.626;23.380;2023-04-04T03:27:23;92702.19;;;11.16;100.00
11077;BME280;5591;42.626;23.380;2023-04-04T03:29:50;92702.56;;;11.08;100.00
11077;BME280;5591;42.626;23.380;2023-04-04T03:32:17;92709.16;;;11.22;100.00
11077;BME280;5591;42.626;23.380;2023-04-04T03:34:43;92709.28;;;11.15;100.00
11077;BME280;5591;42.626;23.380;2023-04-04T03:37:10;92717.25;;;11.20;100.00
11077;BME280;5591;42.626;23.380;2023-04-04T03:39:37;92720.44;;;11.22;100.00
11077;BME280;5591;42.626;23.380;2023-04-04T03:42:05;92712.72;;;11.04;100.00
11077;BME280;5591;42.626;23.380;2023-04-04T03:44:32;92726.25;;;11.01;100.00
11077;BME280;5591;42.626;23.380;2023-04-04T03:46:59;92720.59;;;11.04;100.00
11077;BME280;5591;42.626;23.380;2023-04-04T03:49:26;92714.06;;;11.18;100.00
11077;BME280;5591;42.626;23.380;2023-04-04T03:51:52;92697.97;;;11.26;100.00
11077;BME280;5591;42.626;23.380;2023-04-04T03:54:19;92705.81;;;11.49;100.00
11077;BME280;5591;42.626;23.380;2023-04-04T03:56:46;92708.44;;;11.49;100.00
11077;BME280;5591;42.626;23.380;2023-04-04T03:59:14;92709.38;;;11.66;100.00
11077;BME280;5591;42.626;23.380;2023-04-04T04:01:41;92709.13;;;11.68;100.00
11077;BME280;5591;42.626;23.380;2023-04-04T04:04:07;92711.97;;;11.78;100.00
11077;BME280;5591;42.626;23.380;2023-04-04T04:06:34;92707.19;;;11.75;100.00
11077;BME280;5591;42.626;23.380;2023-04-04T04:09:01;92701.03;;;11.69;100.00
11077;BME280;5591;42.626;23.380;2023-04-04T04:11:28;92706.72;;;11.78;100.00
11077;BME280;5591;42.626;23.380;2023-04-04T04:13:56;92709.47;;;11.71;100.00
11077;BME280;5591;42.626;23.380;2023-04-04T04:16:24;92703.66;;;11.46;100.00
11077;BME280;5591;42.626;23.380;2023-04-04T04:18:50;92706.06;;;11.59;100.00
11077;BME280;5591;42.626;23.380;2023-04-04T04:21:17;92709.94;;;11.34;100.00
11077;BME280;5591;42.626;23.380;2023-04-04T04:23:44;92721.16;;;11.41;100.00
11077;BME280;5591;42.626;23.380;2023-04-04T04:26:10;92726.53;;;11.34;100.00
11077;BME280;5591;42.626;23.380;2023-04-04T04:28:37;92688.03;;;10.94;100.00
11077;BME280;5591;42.626;23.380;2023-04-04T04:31:04;92733.69;;;11.16;100.00
11077;BME280;5591;42.626;23.380;2023-04-04T04:33:33;92741.72;;;11.21;100.00
11077;BME280;5591;42.626;23.380;2023-04-04T04:36:00;92737.34;;;11.49;100.00
11077;BME280;5591;42.626;23.380;2023-04-04T04:38:27;92738.16;;;11.27;100.00
11077;BME280;5591;42.626;23.380;2023-04-04T04:40:54;92738.38;;;11.48;100.00
11077;BME280;5591;42.626;23.380;2023-04-04T04:43:21;92749.69;;;11.60;100.00
11077;BME280;5591;42.626;23.380;2023-04-04T04:45:48;92749.38;;;11.57;100.00
11077;BME280;5591;42.626;23.380;2023-04-04T04:48:15;92748.75;;;11.55;100.00
11077;BME280;5591;42.626;23.380;2023-04-04T04:50:43;92735.84;;;11.53;100.00
11077;BME280;5591;42.626;23.380;2023-04-04T04:53:10;92746.94;;;11.55;100.00
11077;BME280;5591;42.626;23.380;2023-04-04T04:55:37;92752.16;;;11.90;100.00
11077;BME280;5591;42.626;23.380;2023-04-04T04:58:04;92677.38;;;11.58;100.00
11077;BME280;5591;42.626;23.380;2023-04-04T05:00:31;92754.44;;;11.98;100.00
11077;BME280;5591;42.626;23.380;2023-04-04T05:02:58;92713.91;;;11.82;100.00
11077;BME280;5591;42.626;23.380;2023-04-04T05:05:25;92699.84;;;11.77;100.00
11077;BME280;5591;42.626;23.380;2023-04-04T05:07:54;92765.03;;;12.03;100.00
11077;BME280;5591;42.626;23.380;2023-04-04T05:10:21;92763.69;;;12.00;100.00
11077;BME280;5591;42.626;23.380;2023-04-04T05:12:47;92714.28;;;11.63;100.00
11077;BME280;5591;42.626;23.380;2023-04-04T05:15:14;92760.72;;;11.97;100.00
11077;BME280;5591;42.626;23.380;2023-04-04T05:17:41;92776.38;;;11.92;100.00
11077;BME280;5591;42.626;23.380;2023-04-04T05:20:08;92777.69;;;12.17;100.00
11077;BME280;5591;42.626;23.380;2023-04-04T05:22:35;92786.03;;;12.53;100.00
11077;BME280;5591;42.626;23.380;2023-04-04T05:25:04;92784.25;;;12.70;100.00
11077;BME280;5591;42.626;23.380;2023-04-04T05:27:31;92781.47;;;12.77;100.00
11077;BME280;5591;42.626;23.380;2023-04-04T05:29:57;92777.94;;;12.43;100.00
11077;BME280;5591;42.626;23.380;2023-04-04T05:32:24;92789.22;;;12.28;100.00
11077;BME280;5591;42.626;23.380;2023-04-04T05:34:51;92785.16;;;12.20;100.00
11077;BME280;5591;42.626;23.380;2023-04-04T05:37:18;92787.34;;;12.39;100.00
11077;BME280;5591;42.626;23.380;2023-04-04T05:39:44;92783.31;;;12.93;100.00
11077;BME280;5591;42.626;23.380;2023-04-04T05:42:13;92780.63;;;12.88;100.00
11077;BME280;5591;42.626;23.380;2023-04-04T05:44:39;92777.00;;;13.05;100.00
11077;BME280;5591;42.626;23.380;2023-04-04T05:47:06;92784.75;;;13.45;100.00
11077;BME280;5591;42.626;23.380;2023-04-04T05:49:33;92793.28;;;13.52;100.00
11077;BME280;5591;42.626;23.380;2023-04-04T05:52:00;92785.53;;;13.62;100.00
11077;BME280;5591;42.626;23.380;2023-04-04T05:54:27;92790.94;;;13.88;100.00
11077;BME280;5591;42.626;23.380;2023-04-04T05:56:53;92789.06;;;13.18;100.00
11077;BME280;5591;42.626;23.380;2023-04-04T05:59:22;92800.97;;;12.64;100.00
11077;BME280;5591;42.626;23.380;2023-04-04T06:01:49;92796.34;;;12.55;100.00
11077;BME280;5591;42.626;23.380;2023-04-04T06:04:15;92767.72;;;12.31;100.00
11077;BME280;5591;42.626;23.380;2023-04-04T06:06:43;92798.16;;;12.27;100.00
11077;BME280;5591;42.626;23.380;2023-04-04T06:09:10;92796.91;;;12.57;100.00
11077;BME280;5591;42.626;23.380;2023-04-04T06:11:37;92804.38;;;12.09;100.00
11077;BME280;5591;42.626;23.380;2023-04-04T06:14:04;92799.81;;;11.93;100.00
11077;BME280;5591;42.626;23.380;2023-04-04T06:16:33;92797.56;;;12.64;100.00
11077;BME280;5591;42.626;23.380;2023-04-04T06:19:00;92812.13;;;12.55;100.00
11077;BME280;5591;42.626;23.380;2023-04-04T06:21:27;92790.47;;;12.37;100.00
11077;BME280;5591;42.626;23.380;2023-04-04T06:23:54;92718.06;;;11.32;100.00
11077;BME280;5591;42.626;23.380;2023-04-04T06:26:21;92806.88;;;12.04;100.00
11077;BME280;5591;42.626;23.380;2023-04-04T06:28:48;92813.44;;;11.90;100.00
11077;BME280;5591;42.626;23.380;2023-04-04T06:31:15;92803.44;;;12.15;100.00
11077;BME280;5591;42.626;23.380;2023-04-04T06:33:43;92822.91;;;11.45;100.00
11077;BME280;5591;42.626;23.380;2023-04-04T06:36:10;92830.00;;;11.68;100.00
11077;BME280;5591;42.626;23.380;2023-04-04T06:38:37;92830.25;;;11.66;100.00
11077;BME280;5591;42.626;23.380;2023-04-04T06:41:03;92839.88;;;11.31;100.00
11077;BME280;5591;42.626;23.380;2023-04-04T06:43:31;92835.63;;;11.71;100.00
11077;BME280;5591;42.626;23.380;2023-04-04T06:45:58;92828.75;;;11.70;100.00
11077;BME280;5591;42.626;23.380;2023-04-04T06:48:25;92831.59;;;11.69;100.00
11077;BME280;5591;42.626;23.380;2023-04-04T06:50:53;92836.19;;;11.73;100.00
11077;BME280;5591;42.626;23.380;2023-04-04T06:53:20;92844.66;;;11.64;100.00
11077;BME280;5591;42.626;23.380;2023-04-04T06:55:48;92832.94;;;11.48;100.00
11077;BME280;5591;42.626;23.380;2023-04-04T06:58:15;92849.75;;;11.59;100.00
11077;BME280;5591;42.626;23.380;2023-04-04T07:00:41;92866.13;;;9.95;100.00
11077;BME280;5591;42.626;23.380;2023-04-04T07:03:08;92868.59;;;8.18;100.00
11077;BME280;5591;42.626;23.380;2023-04-04T07:05:36;92896.66;;;8.42;100.00
11077;BME280;5591;42.626;23.380;2023-04-04T07:08:06;92908.03;;;7.97;100.00
11077;BME280;5591;42.626;23.380;2023-04-04T07:10:32;92904.63;;;7.90;100.00
11077;BME280;5591;42.626;23.380;2023-04-04T07:12:59;92915.44;;;8.00;100.00
11077;BME280;5591;42.626;23.380;2023-04-04T07:15:26;92925.97;;;7.67;100.00
11077;BME280;5591;42.626;23.380;2023-04-04T07:17:53;92898.06;;;7.29;100.00
11077;BME280;5591;42.626;23.380;2023-04-04T07:20:20;92939.03;;;7.48;100.00
11077;BME280;5591;42.626;23.380;2023-04-04T07:22:47;92938.63;;;7.38;100.00
11077;BME280;5591;42.626;23.380;2023-04-04T07:25:16;92955.69;;;7.15;100.00
11077;BME280;5591;42.626;23.380;2023-04-04T07:27:42;92943.13;;;6.58;100.00
11077;BME280;5591;42.626;23.380;2023-04-04T07:30:10;92955.91;;;6.53;100.00
11077;BME280;5591;42.626;23.380;2023-04-04T07:32:37;92924.03;;;6.45;100.00
11077;BME280;5591;42.626;23.380;2023-04-04T07:35:05;92972.38;;;6.60;100.00
11077;BME280;5591;42.626;23.380;2023-04-04T07:37:32;92959.03;;;6.89;100.00
11077;BME280;5591;42.626;23.380;2023-04-04T07:39:59;92970.47;;;6.82;100.00
11077;BME280;5591;42.626;23.380;2023-04-04T07:42:27;92977.81;;;6.65;100.00
11077;BME280;5591;42.626;23.380;2023-04-04T07:44:55;92978.06;;;6.77;100.00
11077;BME280;5591;42.626;23.380;2023-04-04T07:47:22;92990.16;;;6.44;100.00
11077;BME280;5591;42.626;23.380;2023-04-04T07:49:48;92978.97;;;6.50;100.00
11077;BME280;5591;42.626;23.380;2023-04-04T07:52:15;93037.31;;;5.87;100.00
11077;BME280;5591;42.626;23.380;2023-04-04T07:54:42;93004.22;;;6.09;100.00
11077;BME280;5591;42.626;23.380;2023-04-04T07:57:09;92984.44;;;5.87;100.00
11077;BME280;5591;42.626;23.380;2023-04-04T07:59:37;93001.94;;;5.99;100.00
11077;BME280;5591;42.626;23.380;2023-04-04T08:02:04;92987.91;;;6.00;100.00
11077;BME280;5591;42.626;23.380;2023-04-04T08:04:30;92996.50;;;6.28;100.00
11077;BME280;5591;42.626;23.380;2023-04-04T08:06:57;92993.69;;;5.96;100.00
11077;BME280;5591;42.626;23.380;2023-04-04T08:09:24;93001.31;;;5.70;100.00
11077;BME280;5591;42.626;23.380;2023-04-04T08:11:55;92980.06;;;5.66;100.00
11077;BME280;5591;42.626;23.380;2023-04-04T08:14:22;93000.25;;;5.85;100.00
11077;BME280;5591;42.626;23.380;2023-04-04T08:16:50;92909.81;;;5.39;100.00
11077;BME280;5591;42.626;23.380;2023-04-04T08:19:17;93010.63;;;6.13;100.00
11077;BME280;5591;42.626;23.380;2023-04-04T08:21:43;93022.63;;;6.07;100.00
11077;BME280;5591;42.626;23.380;2023-04-04T08:24:10;93030.66;;;5.85;100.00
11077;BME280;5591;42.626;23.380;2023-04-04T08:26:37;93024.34;;;5.73;100.00
11077;BME280;5591;42.626;23.380;2023-04-04T08:29:04;93036.47;;;5.38;100.00
11077;BME280;5591;42.626;23.380;2023-04-04T08:31:31;93048.59;;;5.52;100.00
11077;BME280;5591;42.626;23.380;2023-04-04T08:34:00;93035.59;;;5.52;100.00
11077;BME280;5591;42.626;23.380;2023-04-04T08:36:27;93067.97;;;5.50;100.00
11077;BME280;5591;42.626;23.380;2023-04-04T08:38:54;93046.97;;;4.88;100.00
11077;BME280;5591;42.626;23.380;2023-04-04T08:41:21;93053.47;;;4.99;100.00
11077;BME280;5591;42.626;23.380;2023-04-04T08:52:23;93049.34;;;4.69;100.00
11077;BME280;5591;42.626;23.380;2023-04-04T08:54:52;93061.47;;;4.33;100.00
11077;BME280;5591;42.626;23.380;2023-04-04T08:57:19;93071.38;;;4.59;100.00
11077;BME280;5591;42.626;23.380;2023-04-04T08:59:46;93079.25;;;4.51;100.00
11077;BME280;5591;42.626;23.380;2023-04-04T09:02:18;93064.34;;;4.38;100.00
11077;BME280;5591;42.626;23.380;2023-04-04T09:04:47;93109.72;;;4.71;100.00
11077;BME280;5591;42.626;23.380;2023-04-04T09:07:14;93069.34;;;5.04;100.00
11077;BME280;5591;42.626;23.380;2023-04-04T09:09:46;93068.75;;;5.23;100.00
11077;BME280;5591;42.626;23.380;2023-04-04T09:12:14;93080.59;;;4.90;100.00
11077;BME280;5591;42.626;23.380;2023-04-04T09:14:42;93098.91;;;5.03;100.00
11077;BME280;5591;42.626;23.380;2023-04-04T09:17:09;93073.44;;;4.63;100.00
11077;BME280;5591;42.626;23.380;2023-04-04T09:19:36;93078.44;;;4.79;100.00
11077;BME280;5591;42.626;23.380;2023-04-04T09:22:06;93085.94;;;4.88;100.00
11077;BME280;5591;42.626;23.380;2023-04-04T09:24:37;93075.31;;;5.04;100.00
11077;BME280;5591;42.626;23.380;2023-04-04T09:27:06;93092.06;;;4.81;100.00
11077;BME280;5591;42.626;23.380;2023-04-04T09:29:34;93089.72;;;4.86;100.00
11077;BME280;5591;42.626;23.380;2023-04-04T09:32:01;93080.69;;;4.68;100.00
11077;BME280;5591;42.626;23.380;2023-04-04T09:34:28;93089.31;;;5.03;100.00
11077;BME280;5591;42.626;23.380;2023-04-04T09:36:56;93069.91;;;4.85;100.00
11077;BME280;5591;42.626;23.380;2023-04-04T09:39:24;93079.53;;;4.70;100.00
11077;BME280;5591;42.626;23.380;2023-04-04T09:41:52;93080.69;;;5.17;100.00
11077;BME280;5591;42.626;23.380;2023-04-04T09:44:20;93085.03;;;4.96;100.00
11077;BME280;5591;42.626;23.380;2023-04-04T09:46:49;93090.88;;;4.83;100.00
11077;BME280;5591;42.626;23.380;2023-04-04T09:49:18;93056.16;;;4.56;100.00
11077;BME280;5591;42.626;23.380;2023-04-04T09:51:52;93078.69;;;4.84;100.00
11077;BME280;5591;42.626;23.380;2023-04-04T09:54:22;93089.19;;;5.11;100.00
11077;BME280;5591;42.626;23.380;2023-04-04T09:56:49;93076.75;;;5.07;100.00
11077;BME280;5591;42.626;23.380;2023-04-04T09:59:17;93089.78;;;5.28;100.00
11077;BME280;5591;42.626;23.380;2023-04-04T10:01:45;93091.41;;;5.50;100.00
11077;BME280;5591;42.626;23.380;2023-04-04T10:04:12;93082.59;;;5.51;100.00
11077;BME280;5591;42.626;23.380;2023-04-04T10:06:42;93090.91;;;5.04;100.00
11077;BME280;5591;42.626;23.380;2023-04-04T10:09:10;93097.94;;;5.04;100.00
11077;BME280;5591;42.626;23.380;2023-04-04T10:11:36;93119.34;;;5.06;100.00
11077;BME280;5591;42.626;23.380;2023-04-04T10:14:03;93122.16;;;5.25;100.00
11077;BME280;5591;42.626;23.380;2023-04-04T10:16:31;93114.59;;;5.09;100.00
11077;BME280;5591;42.626;23.380;2023-04-04T10:19:00;93146.53;;;4.75;100.00
11077;BME280;5591;42.626;23.380;2023-04-04T10:21:29;93137.00;;;4.96;100.00
11077;BME280;5591;42.626;23.380;2023-04-04T10:23:57;93123.84;;;4.97;100.00
11077;BME280;5591;42.626;23.380;2023-04-04T10:26:24;93141.22;;;4.97;100.00
11077;BME280;5591;42.626;23.380;2023-04-04T10:28:51;93133.50;;;4.89;100.00
11077;BME280;5591;42.626;23.380;2023-04-04T10:31:22;93135.31;;;4.88;100.00
11077;BME280;5591;42.626;23.380;2023-04-04T10:34:03;93150.09;;;4.88;100.00
11077;BME280;5591;42.626;23.380;2023-04-04T10:36:39;93133.94;;;5.07;100.00
11077;BME280;5591;42.626;23.380;2023-04-04T10:39:12;93141.03;;;5.48;100.00
11077;BME280;5591;42.626;23.380;2023-04-04T10:41:40;93162.25;;;5.52;100.00
11077;BME280;5591;42.626;23.380;2023-04-04T10:44:12;93147.34;;;5.60;100.00
11077;BME280;5591;42.626;23.380;2023-04-04T10:46:42;93160.06;;;5.34;100.00
11077;BME280;5591;42.626;23.380;2023-04-04T10:49:13;93156.06;;;5.53;100.00
11077;BME280;5591;42.626;23.380;2023-04-04T10:51:41;93144.94;;;5.59;100.00
11077;BME280;5591;42.626;23.380;2023-04-04T10:54:09;93145.91;;;5.58;100.00
11077;BME280;5591;42.626;23.380;2023-04-04T10:56:36;93060.28;;;5.00;100.00
11077;BME280;5591;42.626;23.380;2023-04-04T10:59:11;93120.00;;;5.50;100.00
11077;BME280;5591;42.626;23.380;2023-04-04T11:01:49;93153.16;;;5.41;100.00
11077;BME280;5591;42.626;23.380;2023-04-04T11:04:18;93158.66;;;5.53;100.00
11077;BME280;5591;42.626;23.380;2023-04-04T11:07:10;93170.25;;;5.86;100.00
11077;BME280;5591;42.626;23.380;2023-04-04T11:09:48;93157.69;;;5.54;100.00
11077;BME280;5591;42.626;23.380;2023-04-04T11:12:15;93166.91;;;5.56;100.00
11077;BME280;5591;42.626;23.380;2023-04-04T11:14:55;93176.53;;;5.56;100.00
11077;BME280;5591;42.626;23.380;2023-04-04T11:20:30;93169.63;;;5.69;100.00
11077;BME280;5591;42.626;23.380;2023-04-04T11:23:08;93182.78;;;5.61;100.00
11077;BME280;5591;42.626;23.380;2023-04-04T11:25:39;93181.16;;;5.25;100.00
11077;BME280;5591;42.626;23.380;2023-04-04T11:28:10;93172.50;;;5.53;100.00
11077;BME280;5591;42.626;23.380;2023-04-04T11:30:40;93177.81;;;5.31;100.00
11077;BME280;5591;42.626;23.380;2023-04-04T11:33:12;93146.31;;;5.19;100.00
11077;BME280;5591;42.626;23.380;2023-04-04T11:35:45;93182.16;;;5.24;100.00
11077;BME280;5591;42.626;23.380;2023-04-04T11:38:13;93186.22;;;5.12;100.00
11077;BME280;5591;42.626;23.380;2023-04-04T11:40:42;93189.44;;;5.14;100.00
11077;BME280;5591;42.626;23.380;2023-04-04T11:43:18;93198.84;;;4.86;100.00
11077;BME280;5591;42.626;23.380;2023-04-04T11:45:46;93209.16;;;5.08;100.00
11077;BME280;5591;42.626;23.380;2023-04-04T11:48:14;93179.94;;;5.42;100.00
11077;BME280;5591;42.626;23.380;2023-04-04T11:50:45;93183.41;;;5.28;100.00
11077;BME280;5591;42.626;23.380;2023-04-04T11:53:16;93191.41;;;5.47;100.00
11077;BME280;5591;42.626;23.380;2023-04-04T11:55:43;93178.25;;;5.49;100.00
11077;BME280;5591;42.626;23.380;2023-04-04T11:58:15;93182.94;;;5.39;100.00
11077;BME280;5591;42.626;23.380;2023-04-04T12:00:42;93193.19;;;5.26;100.00
11077;BME280;5591;42.626;23.380;2023-04-04T12:03:11;93125.41;;;4.63;100.00
11077;BME280;5591;42.626;23.380;2023-04-04T12:05:38;93200.09;;;5.04;100.00
11077;BME280;5591;42.626;23.380;2023-04-04T12:08:09;93189.09;;;4.88;100.00
11077;BME280;5591;42.626;23.380;2023-04-04T12:10:38;93195.63;;;4.98;100.00
11077;BME280;5591;42.626;23.380;2023-04-04T12:13:06;93151.75;;;4.75;100.00
11077;BME280;5591;42.626;23.380;2023-04-04T12:15:34;93117.34;;;4.44;100.00
11077;BME280;5591;42.626;23.380;2023-04-04T12:18:01;93190.72;;;4.75;100.00
11077;BME280;5591;42.626;23.380;2023-04-04T12:20:28;93187.28;;;5.17;100.00
11077;BME280;5591;42.626;23.380;2023-04-04T12:22:56;93163.03;;;4.53;100.00
11077;BME280;5591;42.626;23.380;2023-04-04T12:25:25;93195.56;;;5.06;100.00
11077;BME280;5591;42.626;23.380;2023-04-04T12:27:58;93206.84;;;4.84;100.00
11077;BME280;5591;42.626;23.380;2023-04-04T12:30:26;93189.00;;;4.53;100.00
11077;BME280;5591;42.626;23.380;2023-04-04T12:32:53;93198.31;;;4.62;100.00
11077;BME280;5591;42.626;23.380;2023-04-04T12:35:20;93206.47;;;4.87;100.00
11077;BME280;5591;42.626;23.380;2023-04-04T12:37:58;93204.50;;;4.75;100.00
11077;BME280;5591;42.626;23.380;2023-04-04T12:40:31;93205.94;;;4.63;100.00
11077;BME280;5591;42.626;23.380;2023-04-04T12:42:58;93195.09;;;4.74;100.00
11077;BME280;5591;42.626;23.380;2023-04-04T12:45:25;93191.78;;;4.80;100.00
11077;BME280;5591;42.626;23.380;2023-04-04T12:47:53;93202.28;;;4.72;100.00
11077;BME280;5591;42.626;23.380;2023-04-04T12:50:22;93221.50;;;4.49;100.00
11077;BME280;5591;42.626;23.380;2023-04-04T12:52:51;93199.81;;;4.27;100.00
11077;BME280;5591;42.626;23.380;2023-04-04T12:55:20;93198.72;;;4.22;100.00
11077;BME280;5591;42.626;23.380;2023-04-04T12:57:49;93217.50;;;4.24;100.00
11077;BME280;5591;42.626;23.380;2023-04-04T13:00:19;93203.53;;;4.25;100.00
11077;BME280;5591;42.626;23.380;2023-04-04T13:02:48;93197.13;;;4.50;100.00
11077;BME280;5591;42.626;23.380;2023-04-04T13:05:15;93220.38;;;4.29;100.00
11077;BME280;5591;42.626;23.380;2023-04-04T13:07:44;93220.69;;;4.11;100.00
11077;BME280;5591;42.626;23.380;2023-04-04T13:10:13;93226.91;;;4.25;100.00